createdAt,value
2018-05-13T00:02:12.437Z,12.37
2018-05-13T00:04:39.917Z,12.33
2018-05-13T00:07:08.169Z,13.60
2018-05-13T00:09:35.645Z,14.50
2018-05-13T00:12:03.989Z,13.47
2018-05-13T00:14:31.460Z,13.30
2018-05-13T00:16:58.946Z,13.53
2018-05-13T00:19:27.201Z,13.40
2018-05-13T00:21:54.674Z,12.27
2018-05-13T00:24:22.921Z,12.83
2018-05-13T00:26:50.394Z,14.90
2018-05-13T00:29:18.701Z,12.80
2018-05-13T00:31:46.137Z,13.53
2018-05-13T00:34:14.393Z,14.97
2018-05-13T00:36:41.866Z,12.67
2018-05-13T00:39:10.131Z,16.83
2018-05-13T00:41:38.373Z,12.37
2018-05-13T00:44:05.860Z,14.60
2018-05-13T00:46:33.334Z,13.93
2018-05-13T00:49:01.589Z,13.47
2018-05-13T00:51:29.829Z,13.80
2018-05-13T00:53:57.322Z,15.73
2018-05-13T00:56:25.561Z,14.20
2018-05-13T00:58:53.051Z,11.70
2018-05-13T01:01:21.300Z,15.27
2018-05-13T01:06:22.976Z,18.53
2018-05-13T01:08:51.241Z,31.20
2018-05-13T01:11:18.717Z,38.63
2018-05-13T01:13:46.184Z,60.73
2018-05-13T01:16:14.447Z,77.20
2018-05-13T01:18:41.947Z,35.83
2018-05-13T01:21:09.437Z,13.90
2018-05-13T01:23:36.932Z,71.67
2018-05-13T01:26:05.196Z,31.63
2018-05-13T01:28:32.673Z,19.73
2018-05-13T01:31:00.170Z,47.17
2018-05-13T01:33:27.641Z,14.00
2018-05-13T01:35:55.160Z,25.13
2018-05-13T01:38:22.625Z,21.57
2018-05-13T01:40:50.131Z,160.73
2018-05-13T01:43:18.383Z,102.77
2018-05-13T01:45:45.894Z,26.63
2018-05-13T01:48:13.377Z,15.00
2018-05-13T01:50:40.858Z,19.83
2018-05-13T01:53:08.372Z,13.07
2018-05-13T01:55:35.844Z,26.33
2018-05-13T01:58:03.340Z,30.07
2018-05-13T02:00:30.821Z,33.33
2018-05-13T02:02:59.069Z,17.90
2018-05-13T02:05:26.545Z,13.70
2018-05-13T02:07:54.804Z,12.73
2018-05-13T02:10:22.284Z,11.43
2018-05-13T02:12:50.536Z,11.83
2018-05-13T02:15:18.025Z,13.63
2018-05-13T02:17:45.517Z,13.83
2018-05-13T02:20:12.998Z,14.03
2018-05-13T02:22:40.486Z,14.40
2018-05-13T02:25:07.957Z,20.57
2018-05-13T02:27:35.444Z,12.30
2018-05-13T02:30:02.914Z,12.70
2018-05-13T02:32:30.401Z,13.03
2018-05-13T02:34:58.681Z,12.93
2018-05-13T02:37:26.917Z,12.50
2018-05-13T02:39:55.917Z,13.13
2018-05-13T02:42:23.382Z,8.90
2018-05-13T02:44:50.863Z,8.13
2018-05-13T02:47:18.436Z,6.70
2018-05-13T02:49:45.916Z,4.73
2018-05-13T02:52:13.381Z,4.17
2018-05-13T02:54:40.882Z,3.93
2018-05-13T02:57:09.121Z,5.83
2018-05-13T02:59:37.045Z,5.70
2018-05-13T03:02:04.513Z,5.87
2018-05-13T03:04:32.469Z,5.73
2018-05-13T03:06:59.934Z,7.37
2018-05-13T03:09:27.435Z,9.73
2018-05-13T03:11:54.911Z,9.00
2018-05-13T03:14:23.145Z,10.17
2018-05-13T03:16:50.633Z,9.30
2018-05-13T03:19:18.872Z,11.93
2018-05-13T03:21:46.362Z,11.90
2018-05-13T03:24:14.602Z,13.57
2018-05-13T03:26:42.461Z,11.97
2018-05-13T03:29:09.933Z,12.17
2018-05-13T03:31:37.442Z,11.87
2018-05-13T03:34:04.921Z,12.23
2018-05-13T03:36:32.411Z,10.83
2018-05-13T03:38:59.882Z,12.93
2018-05-13T03:41:28.133Z,11.60
2018-05-13T03:43:55.600Z,12.67
2018-05-13T03:46:23.101Z,12.97
2018-05-13T03:48:50.570Z,13.37
2018-05-13T03:51:18.062Z,15.20
2018-05-13T03:53:45.533Z,12.50
2018-05-13T03:56:13.772Z,13.77
2018-05-13T03:58:41.261Z,11.90
2018-05-13T04:01:08.733Z,17.13
2018-05-13T04:03:36.996Z,16.07
2018-05-13T04:06:04.511Z,14.47
2018-05-13T04:08:52.856Z,13.80
2018-05-13T04:11:32.169Z,15.87
2018-05-13T04:14:12.382Z,18.23
2018-05-13T04:16:39.857Z,18.30
2018-05-13T04:19:08.116Z,18.97
2018-05-13T04:21:36.365Z,17.57
2018-05-13T04:24:03.849Z,20.33
2018-05-13T04:26:32.158Z,23.53
2018-05-13T04:28:59.647Z,24.67
2018-05-13T04:31:27.117Z,22.37
2018-05-13T04:33:54.809Z,26.13
2018-05-13T04:36:23.057Z,29.00
2018-05-13T04:38:50.547Z,27.00
2018-05-13T04:41:18.025Z,26.83
2018-05-13T04:43:45.518Z,30.60
2018-05-13T04:46:13.015Z,31.10
2018-05-13T04:48:40.506Z,26.27
2018-05-13T04:51:07.985Z,30.97
2018-05-13T04:53:35.482Z,33.97
2018-05-13T04:56:03.717Z,29.80
2018-05-13T04:58:31.189Z,28.83
2018-05-13T05:00:58.683Z,33.77
2018-05-13T05:03:26.156Z,36.43
2018-05-13T05:05:53.647Z,33.97
2018-05-13T05:08:21.128Z,35.93
2018-05-13T05:10:49.400Z,35.47
2018-05-13T05:13:17.661Z,34.03
2018-05-13T05:15:45.168Z,37.73
2018-05-13T05:18:12.645Z,39.13
2018-05-13T05:20:40.132Z,40.80
2018-05-13T05:23:07.613Z,42.43
2018-05-13T05:25:35.864Z,37.20
2018-05-13T05:28:03.336Z,40.50
2018-05-13T05:30:31.597Z,42.90
2018-05-13T05:32:59.067Z,40.03
2018-05-13T05:35:27.325Z,36.67
2018-05-13T05:37:54.801Z,41.50
2018-05-13T05:40:22.274Z,40.10
2018-05-13T05:42:49.761Z,46.00
2018-05-13T05:45:17.232Z,41.77
2018-05-13T05:47:44.725Z,47.93
2018-05-13T05:50:12.981Z,42.47
2018-05-13T05:52:40.474Z,40.37
2018-05-13T05:55:07.949Z,41.03
2018-05-13T05:57:35.436Z,41.70
2018-05-13T06:00:04.420Z,34.27
2018-05-13T06:02:33.424Z,37.87
2018-05-13T06:05:00.901Z,44.37
2018-05-13T06:07:29.153Z,39.60
2018-05-13T06:09:57.420Z,41.27
2018-05-13T06:12:24.901Z,44.43
2018-05-13T06:14:53.164Z,44.97
2018-05-13T06:17:20.649Z,40.97
2018-05-13T06:19:48.228Z,45.43
2018-05-13T06:22:15.721Z,43.37
2018-05-13T06:24:43.212Z,50.93
2018-05-13T06:27:11.465Z,44.67
2018-05-13T06:29:38.950Z,46.93
2018-05-13T06:32:06.432Z,52.80
2018-05-13T06:34:33.925Z,69.07
2018-05-13T06:37:01.408Z,60.77
2018-05-13T06:39:29.719Z,63.07
2018-05-13T06:41:57.969Z,64.57
2018-05-13T06:44:25.466Z,62.63
2018-05-13T06:46:52.953Z,64.00
2018-05-13T06:49:20.441Z,64.10
2018-05-13T06:51:47.929Z,64.00
2018-05-13T06:54:15.428Z,65.67
2018-05-13T06:56:44.153Z,72.30
2018-05-13T06:59:11.685Z,80.07
2018-05-13T07:01:39.925Z,67.07
2018-05-13T07:04:07.405Z,80.90
2018-05-13T07:06:35.661Z,78.27
2018-05-13T07:09:03.154Z,76.03
2018-05-13T07:11:31.402Z,82.43
2018-05-13T07:13:58.874Z,75.20
2018-05-13T07:16:27.153Z,79.57
2018-05-13T07:18:55.399Z,97.10
2018-05-13T07:21:22.907Z,81.33
2018-05-13T07:23:50.387Z,84.20
2018-05-13T07:26:17.890Z,85.23
2018-05-13T07:28:46.124Z,91.47
2018-05-13T07:31:13.619Z,84.13
2018-05-13T07:33:41.871Z,100.87
2018-05-13T07:36:09.361Z,97.43
2018-05-13T07:38:36.939Z,88.40
2018-05-13T07:41:04.432Z,101.87
2018-05-13T07:43:31.955Z,105.33
2018-05-13T07:46:00.162Z,86.80
2018-05-13T07:48:27.655Z,90.67
2018-05-13T07:50:55.900Z,90.10
2018-05-13T07:53:24.900Z,83.43
2018-05-13T07:55:52.402Z,66.00
2018-05-13T07:58:19.903Z,72.37
2018-05-13T08:00:47.393Z,72.60
2018-05-13T08:03:15.665Z,78.40
2018-05-13T08:05:44.567Z,75.57
2018-05-13T08:08:12.066Z,67.43
2018-05-13T08:10:39.547Z,85.57
2018-05-13T08:13:07.066Z,91.77
2018-05-13T08:15:34.537Z,83.33
2018-05-13T08:18:02.029Z,75.50
2018-05-13T08:20:30.326Z,79.67
2018-05-13T08:22:57.793Z,79.07
2018-05-13T08:25:25.269Z,80.07
2018-05-13T08:27:52.770Z,74.10
2018-05-13T08:30:21.025Z,74.13
2018-05-13T08:32:48.509Z,67.43
2018-05-13T08:35:16.762Z,71.57
2018-05-13T08:37:44.239Z,78.47
2018-05-13T08:40:12.513Z,74.10
2018-05-13T08:42:40.759Z,74.93
2018-05-13T08:45:08.261Z,78.17
2018-05-13T08:47:35.733Z,64.57
2018-05-13T08:50:03.233Z,79.23
2018-05-13T08:52:30.709Z,86.90
2018-05-13T08:54:58.969Z,76.70
2018-05-13T08:57:26.439Z,76.47
2018-05-13T08:59:54.687Z,71.50
2018-05-13T09:02:22.205Z,79.43
2018-05-13T09:04:49.695Z,76.83
2018-05-13T09:07:17.283Z,73.77
2018-05-13T09:09:45.473Z,95.10
2018-05-13T09:12:13.719Z,85.80
2018-05-13T09:14:41.208Z,82.07
2018-05-13T09:17:08.701Z,81.07
2018-05-13T09:19:36.171Z,75.67
2018-05-13T09:22:03.669Z,67.90
2018-05-13T09:24:32.385Z,66.40
2018-05-13T09:26:59.872Z,75.43
2018-05-13T09:29:27.416Z,83.93
2018-05-13T09:31:54.905Z,77.47
2018-05-13T09:34:22.372Z,75.30
2018-05-13T09:36:50.633Z,67.80
2018-05-13T09:39:18.117Z,70.43
2018-05-13T09:41:46.368Z,66.90
2018-05-13T09:44:13.872Z,67.27
2018-05-13T09:46:41.364Z,69.00
2018-05-13T09:49:08.836Z,64.50
2018-05-13T09:51:36.325Z,58.07
2018-05-13T09:54:03.798Z,73.50
2018-05-13T09:56:31.269Z,71.73
2018-05-13T09:58:58.749Z,70.00
2018-05-13T10:01:26.222Z,69.30
2018-05-13T10:03:54.478Z,71.17
2018-05-13T10:06:21.987Z,70.30
2018-05-13T10:08:49.477Z,65.63
2018-05-13T10:11:16.953Z,61.43
2018-05-13T10:13:44.442Z,67.30
2018-05-13T10:16:11.913Z,66.50
2018-05-13T10:18:39.401Z,62.03
2018-05-13T10:21:06.882Z,65.37
2018-05-13T10:23:34.372Z,60.87
2018-05-13T10:26:01.852Z,58.47
2018-05-13T10:28:29.336Z,62.20
2018-05-13T10:30:58.333Z,59.90
2018-05-13T10:33:25.848Z,61.40
2018-05-13T10:35:53.325Z,66.63
2018-05-13T10:38:20.797Z,54.87
2018-05-13T10:40:48.311Z,57.07
2018-05-13T10:43:15.784Z,57.47
2018-05-13T10:45:43.272Z,49.83
2018-05-13T10:48:10.765Z,57.10
2018-05-13T10:50:39.017Z,58.80
2018-05-13T10:53:06.497Z,53.07
2018-05-13T10:55:34.793Z,56.03
2018-05-13T10:58:02.267Z,48.80
2018-05-13T11:00:29.761Z,45.40
2018-05-13T11:02:57.265Z,45.97
2018-05-13T11:05:24.827Z,46.40
2018-05-13T11:07:52.297Z,48.63
2018-05-13T11:10:19.861Z,45.80
2018-05-13T11:12:48.057Z,43.10
2018-05-13T11:15:15.566Z,45.50
2018-05-13T11:17:43.037Z,50.13
2018-05-13T11:20:10.533Z,51.43
2018-05-13T11:22:38.021Z,48.93
2018-05-13T11:25:06.253Z,49.80
2018-05-13T11:27:33.745Z,51.37
2018-05-13T11:30:02.143Z,52.93
2018-05-13T11:32:29.635Z,49.00
2018-05-13T11:34:57.158Z,47.27
2018-05-13T11:37:24.644Z,46.90
2018-05-13T11:39:52.269Z,56.80
2018-05-13T11:42:19.681Z,58.27
2018-05-13T11:44:47.186Z,52.60
2018-05-13T11:47:14.676Z,50.57
2018-05-13T11:49:42.153Z,51.93
2018-05-13T11:52:09.673Z,60.10
2018-05-13T11:54:37.152Z,53.20
2018-05-13T11:57:04.661Z,62.60
2018-05-13T11:59:32.135Z,64.43
2018-05-13T12:01:59.683Z,64.40
2018-05-13T12:04:27.189Z,51.57
2018-05-13T12:06:54.678Z,54.90
2018-05-13T12:09:22.947Z,59.50
2018-05-13T12:11:51.188Z,47.97
2018-05-13T12:14:18.700Z,51.53
2018-05-13T12:16:46.177Z,57.37
2018-05-13T12:19:13.677Z,58.03
2018-05-13T12:21:41.913Z,55.20
2018-05-13T12:24:09.401Z,67.37
2018-05-13T12:26:36.881Z,60.63
2018-05-13T12:29:04.384Z,54.20
2018-05-13T12:31:31.853Z,56.23
2018-05-13T12:33:59.346Z,54.30
2018-05-13T12:36:27.583Z,52.43
2018-05-13T12:38:55.069Z,64.37
2018-05-13T12:41:23.305Z,62.07
2018-05-13T12:43:50.796Z,53.03
2018-05-13T12:46:19.033Z,58.47
2018-05-13T12:48:46.516Z,54.20
2018-05-13T12:51:13.990Z,53.73
2018-05-13T12:53:42.245Z,53.67
2018-05-13T12:56:09.715Z,52.30
2018-05-13T12:58:37.973Z,46.90
2018-05-13T13:01:05.437Z,44.20
2018-05-13T13:03:33.693Z,43.67
2018-05-13T13:06:01.177Z,49.40
2018-05-13T13:08:29.428Z,49.03
2018-05-13T13:10:56.913Z,53.97
2018-05-13T13:13:25.161Z,54.90
2018-05-13T13:15:52.649Z,57.60
2018-05-13T13:18:20.145Z,61.00
2018-05-13T13:20:47.637Z,49.53
2018-05-13T13:23:15.112Z,55.37
2018-05-13T13:25:43.362Z,55.80
2018-05-13T13:28:10.829Z,54.27
2018-05-13T13:30:39.105Z,46.23
2018-05-13T13:33:07.353Z,48.47
2018-05-13T13:35:34.840Z,50.30
2018-05-13T13:38:03.097Z,48.87
2018-05-13T13:40:30.593Z,39.13
2018-05-13T13:42:58.062Z,40.10
2018-05-13T13:45:25.536Z,38.47
2018-05-13T13:47:53.025Z,45.17
2018-05-13T13:50:20.501Z,38.07
2018-05-13T13:52:48.788Z,43.33
2018-05-13T13:55:16.257Z,42.37
2018-05-13T13:57:43.750Z,43.23
2018-05-13T14:00:11.220Z,41.57
2018-05-13T14:02:38.714Z,36.30
2018-05-13T14:05:06.194Z,33.77
2018-05-13T14:07:33.697Z,39.53
2018-05-13T14:10:01.949Z,40.17
2018-05-13T14:12:29.457Z,41.53
2018-05-13T14:14:56.957Z,37.30
2018-05-13T14:17:24.440Z,38.63
2018-05-13T14:19:52.696Z,39.97
2018-05-13T14:22:20.189Z,44.17
2018-05-13T14:24:48.437Z,39.67
2018-05-13T14:27:15.922Z,38.80
2018-05-13T14:29:43.405Z,38.53
2018-05-13T14:32:10.877Z,34.00
2018-05-13T14:34:38.366Z,38.83
2018-05-13T14:37:05.837Z,38.17
2018-05-13T14:39:34.101Z,36.93
2018-05-13T14:42:02.352Z,37.90
2018-05-13T14:44:30.613Z,33.03
2018-05-13T14:46:58.085Z,33.43
2018-05-13T14:49:25.573Z,34.50
2018-05-13T14:51:53.832Z,32.20
2018-05-13T14:54:21.322Z,32.20
2018-05-13T14:56:48.801Z,36.13
2018-05-13T14:59:16.293Z,34.37
2018-05-13T15:01:43.765Z,32.77
2018-05-13T15:04:12.029Z,31.60
2018-05-13T15:06:39.510Z,34.23
2018-05-13T15:09:07.764Z,32.00
2018-05-13T15:11:36.014Z,32.20
2018-05-13T15:14:03.496Z,36.97
2018-05-13T15:16:31.056Z,38.03
2018-05-13T15:18:58.460Z,39.33
2018-05-13T15:21:26.052Z,40.60
2018-05-13T15:23:53.537Z,39.73
2018-05-13T15:26:21.790Z,44.53
2018-05-13T15:28:49.263Z,46.10
2018-05-13T15:31:17.898Z,40.60
2018-05-13T15:33:45.421Z,45.90
2018-05-13T15:36:12.909Z,45.47
2018-05-13T15:38:40.418Z,46.70
2018-05-13T15:41:08.679Z,46.33
2018-05-13T15:43:36.157Z,50.77
2018-05-13T15:46:04.439Z,50.80
2018-05-13T15:48:31.935Z,43.87
2018-05-13T15:50:59.421Z,52.33
2018-05-13T15:53:26.911Z,46.80
2018-05-13T15:55:54.389Z,48.47
2018-05-13T15:58:21.873Z,46.93
2018-05-13T16:00:49.585Z,48.87
2018-05-13T16:03:17.068Z,47.37
2018-05-13T16:05:44.541Z,49.23
2018-05-13T16:08:12.033Z,51.57
2018-05-13T16:10:40.267Z,46.53
2018-05-13T16:13:07.785Z,46.60
2018-05-13T16:15:35.259Z,50.33
2018-05-13T16:18:02.765Z,45.87
2018-05-13T16:20:30.237Z,45.17
2018-05-13T16:22:58.494Z,49.60
2018-05-13T16:25:25.965Z,52.57
2018-05-13T16:27:54.221Z,48.50
2018-05-13T16:30:21.795Z,48.67
2018-05-13T16:32:49.225Z,46.97
2018-05-13T16:35:16.714Z,48.57
2018-05-13T16:37:44.962Z,45.17
2018-05-13T16:40:12.457Z,56.23
2018-05-13T16:42:39.933Z,53.43
2018-05-13T16:45:07.417Z,49.57
2018-05-13T16:47:34.897Z,49.73
2018-05-13T16:50:03.517Z,51.00
2018-05-13T16:52:30.993Z,55.30
2018-05-13T16:54:58.531Z,48.97
2018-05-13T16:57:26.005Z,52.43
2018-05-13T16:59:53.499Z,44.37
2018-05-13T17:02:21.046Z,46.83
2018-05-13T17:04:48.559Z,47.70
2018-05-13T17:07:16.037Z,45.80
2018-05-13T17:09:43.509Z,46.90
2018-05-13T17:12:11.001Z,44.13
2018-05-13T17:14:39.301Z,49.37
2018-05-13T17:17:06.825Z,56.57
2018-05-13T17:19:34.313Z,58.00
2018-05-13T17:22:01.803Z,56.30
2018-05-13T17:24:29.327Z,53.27
2018-05-13T17:26:56.821Z,61.13
2018-05-13T17:29:24.344Z,54.60
2018-05-13T17:31:51.837Z,49.50
2018-05-13T17:34:19.333Z,48.40
2018-05-13T17:36:47.601Z,52.50
2018-05-13T17:39:15.884Z,54.03
2018-05-13T17:41:43.345Z,47.30
2018-05-13T17:44:10.814Z,49.23
2018-05-13T17:46:38.304Z,49.87
2018-05-13T17:49:05.778Z,46.33
2018-05-13T17:51:33.253Z,49.23
2018-05-13T17:54:01.502Z,51.10
2018-05-13T17:56:29.015Z,47.77
2018-05-13T17:58:56.504Z,45.53
2018-05-13T18:01:23.987Z,46.23
2018-05-13T18:03:52.302Z,46.40
2018-05-13T18:06:19.800Z,51.27
2018-05-13T18:08:47.297Z,41.13
2018-05-13T18:11:15.537Z,53.20
2018-05-13T18:13:43.025Z,45.90
2018-05-13T18:16:11.261Z,50.03
2018-05-13T18:18:38.941Z,45.83
2018-05-13T18:21:06.241Z,44.00
2018-05-13T18:23:33.729Z,50.50
2018-05-13T18:26:01.210Z,49.77
2018-05-13T18:28:29.480Z,49.30
2018-05-13T18:30:57.762Z,45.40
2018-05-13T18:33:25.225Z,48.10
2018-05-13T18:35:53.936Z,48.73
2018-05-13T18:38:21.409Z,44.60
2018-05-13T18:40:48.906Z,49.73
2018-05-13T18:43:17.158Z,49.13
2018-05-13T18:45:44.645Z,50.87
2018-05-13T18:48:12.885Z,47.97
2018-05-13T18:50:40.372Z,46.43
2018-05-13T18:53:08.613Z,48.97
2018-05-13T18:55:36.101Z,45.83
2018-05-13T18:58:04.413Z,50.23
2018-05-13T19:00:31.905Z,49.10
2018-05-13T19:02:59.377Z,50.27
2018-05-13T19:05:26.864Z,45.57
2018-05-13T19:07:54.543Z,40.77
2018-05-13T19:10:22.036Z,50.33
2018-05-13T19:12:49.556Z,48.03
2018-05-13T19:15:17.081Z,46.10
2018-05-13T19:17:45.491Z,45.30
2018-05-13T19:20:12.961Z,43.70
2018-05-13T19:22:40.452Z,43.93
2018-05-13T19:25:07.923Z,43.90
2018-05-13T19:27:36.193Z,46.23
2018-05-13T19:30:03.689Z,42.00
2018-05-13T19:32:31.185Z,45.70
2018-05-13T19:34:58.665Z,41.83
2018-05-13T19:37:26.292Z,40.67
2018-05-13T19:39:53.770Z,44.40
2018-05-13T19:42:21.256Z,38.13
2018-05-13T19:44:49.500Z,37.47
2018-05-13T19:47:16.989Z,35.13
2018-05-13T19:49:44.466Z,36.97
2018-05-13T19:52:11.960Z,42.20
2018-05-13T19:54:39.431Z,37.57
2018-05-13T19:57:06.928Z,38.83
2018-05-13T19:59:34.488Z,41.47
2018-05-13T20:02:01.962Z,34.87
2018-05-13T20:04:29.453Z,32.47
2018-05-13T20:06:56.930Z,32.60
2018-05-13T20:09:25.270Z,30.80
2018-05-13T20:11:52.708Z,33.97
2018-05-13T20:14:20.210Z,35.77
2018-05-13T20:16:48.502Z,31.07
2018-05-13T20:19:16.775Z,33.30
2018-05-13T20:21:45.018Z,28.60
2018-05-13T20:24:12.528Z,33.37
2018-05-13T20:26:40.106Z,29.23
2018-05-13T20:29:07.643Z,32.73
2018-05-13T20:31:35.117Z,29.23
2018-05-13T20:34:02.624Z,36.73
2018-05-13T20:36:30.893Z,30.33
2018-05-13T20:38:59.173Z,36.67
2018-05-13T20:41:27.484Z,34.17
2018-05-13T20:43:54.967Z,33.40
2018-05-13T20:46:22.465Z,35.00
2018-05-13T20:48:50.706Z,31.47
2018-05-13T20:51:18.199Z,30.73
2018-05-13T20:53:45.701Z,36.37
2018-05-13T20:56:13.312Z,33.97
2018-05-13T20:58:41.566Z,36.17
2018-05-13T21:01:09.056Z,38.17
2018-05-13T21:03:36.547Z,36.93
2018-05-13T21:06:04.064Z,37.67
2018-05-13T21:08:32.301Z,38.40
2018-05-13T21:10:59.773Z,38.67
2018-05-13T21:13:27.283Z,38.23
2018-05-13T21:15:54.764Z,42.83
2018-05-13T21:18:22.329Z,40.30
2018-05-13T21:20:49.819Z,42.80
2018-05-13T21:23:18.097Z,37.87
2018-05-13T21:25:46.345Z,38.70
2018-05-13T21:28:13.818Z,40.83
2018-05-13T21:30:42.077Z,38.23
2018-05-13T21:33:09.552Z,39.47
2018-05-13T21:35:37.813Z,39.20
2018-05-13T21:38:05.297Z,42.10
2018-05-13T21:40:33.229Z,40.60
2018-05-13T21:43:01.473Z,41.33
2018-05-13T21:45:29.051Z,41.40
2018-05-13T21:47:56.525Z,45.03
2018-05-13T21:50:24.780Z,49.90
2018-05-13T21:52:52.278Z,41.60
2018-05-13T21:55:19.770Z,52.37
2018-05-13T21:57:47.300Z,46.07
2018-05-13T22:00:14.769Z,41.40
2018-05-13T22:02:42.241Z,43.33
2018-05-13T22:05:09.790Z,44.40
2018-05-13T22:07:37.261Z,46.80
2018-05-13T22:10:04.785Z,43.97
2018-05-13T22:12:32.257Z,42.77
2018-05-13T22:14:59.756Z,46.47
2018-05-13T22:17:27.231Z,51.90
2018-05-13T22:19:55.469Z,46.20
2018-05-13T22:22:22.969Z,45.33
2018-05-13T22:24:50.461Z,45.73
2018-05-13T22:27:17.949Z,42.93
2018-05-13T22:29:45.428Z,42.10
2018-05-13T22:32:13.700Z,53.93
2018-05-13T22:34:41.937Z,42.93
2018-05-13T22:37:09.462Z,51.73
2018-05-13T22:39:36.953Z,45.63
2018-05-13T22:42:04.441Z,46.53
2018-05-13T22:44:32.034Z,55.47
2018-05-13T22:46:59.509Z,49.03
2018-05-13T22:49:27.004Z,51.77
2018-05-13T22:51:54.477Z,52.80
2018-05-13T22:54:22.713Z,46.53
2018-05-13T22:56:50.201Z,48.23
2018-05-13T22:59:18.510Z,56.63
2018-05-13T23:01:46.033Z,53.70
2018-05-13T23:04:13.500Z,57.67
2018-05-13T23:06:40.993Z,61.17
2018-05-13T23:09:08.471Z,62.20
2018-05-13T23:11:35.953Z,61.73
2018-05-13T23:14:04.218Z,61.10
2018-05-13T23:16:31.696Z,67.07
2018-05-13T23:18:59.952Z,71.23
2018-05-13T23:21:27.417Z,62.50
2018-05-13T23:23:55.689Z,76.30
2018-05-13T23:26:23.925Z,71.63
2018-05-13T23:28:51.400Z,69.17
2018-05-13T23:31:18.893Z,77.93
2018-05-13T23:33:47.132Z,89.00
2018-05-13T23:36:14.743Z,84.23
2018-05-13T23:38:42.228Z,83.97
2018-05-13T23:41:09.771Z,90.23
2018-05-13T23:43:37.255Z,81.60
2018-05-13T23:46:04.772Z,84.17
2018-05-13T23:48:32.258Z,92.63
2018-05-13T23:50:59.784Z,91.97
2018-05-13T23:53:27.283Z,95.23
2018-05-13T23:55:54.753Z,99.40
2018-05-13T23:58:22.229Z,103.33
